createdAt,value
2022-12-29T00:00:13.543Z,3.61
2022-12-29T00:02:42.085Z,3.60
2022-12-29T00:05:09.858Z,3.62
2022-12-29T00:07:37.135Z,3.47
2022-12-29T00:10:05.287Z,3.34
2022-12-29T00:12:52.591Z,3.13
2022-12-29T00:15:38.176Z,2.91
2022-12-29T00:18:06.453Z,2.73
2022-12-29T00:20:57.321Z,2.63
2022-12-29T00:23:43.867Z,2.66
2022-12-29T00:26:35.972Z,2.63
2022-12-29T00:29:21.890Z,2.49
2022-12-29T00:32:08.041Z,2.57
2022-12-29T00:34:53.824Z,2.47
2022-12-29T00:37:41.354Z,2.28
2022-12-29T00:40:32.289Z,2.34
2022-12-29T00:43:22.633Z,2.28
2022-12-29T00:45:50.005Z,2.30
2022-12-29T00:48:37.208Z,2.22
2022-12-29T00:51:04.839Z,2.31
2022-12-29T00:53:32.100Z,2.33
2022-12-29T00:55:59.722Z,2.43
2022-12-29T00:58:31.320Z,2.48
2022-12-29T01:01:09.835Z,2.69
2022-12-29T01:03:39.088Z,2.80
2022-12-29T01:06:09.055Z,2.86
2022-12-29T01:08:38.635Z,3.02
2022-12-29T01:11:10.500Z,3.11
2022-12-29T01:13:43.537Z,3.25
2022-12-29T01:16:12.249Z,3.32
2022-12-29T01:18:39.482Z,3.35
2022-12-29T01:21:07.923Z,3.35
2022-12-29T01:23:35.356Z,3.41
2022-12-29T01:26:17.612Z,3.53
2022-12-29T01:28:45.988Z,3.54
2022-12-29T01:31:15.615Z,3.64
2022-12-29T01:33:44.111Z,3.67
2022-12-29T01:36:16.378Z,3.75
2022-12-29T01:38:45.189Z,3.71
2022-12-29T01:41:15.312Z,3.77
2022-12-29T01:43:58.647Z,3.61
2022-12-29T01:46:39.890Z,3.63
2022-12-29T01:49:30.373Z,3.66
2022-12-29T01:52:09.044Z,3.71
2022-12-29T01:54:49.036Z,3.79
2022-12-29T01:57:22.749Z,3.86
2022-12-29T02:00:01.408Z,3.70
2022-12-29T02:02:32.628Z,3.78
2022-12-29T02:05:08.532Z,3.85
2022-12-29T02:07:36.402Z,3.77
2022-12-29T02:10:04.665Z,3.79
2022-12-29T02:12:31.980Z,3.93
2022-12-29T02:15:03.092Z,4.01
2022-12-29T02:17:54.252Z,4.07
2022-12-29T02:21:00.200Z,4.13
2022-12-29T02:24:10.278Z,4.00
2022-12-29T02:27:27.909Z,3.80
2022-12-29T02:30:38.158Z,3.65
2022-12-29T02:33:17.106Z,3.64
2022-12-29T02:35:57.132Z,3.50
2022-12-29T02:38:42.138Z,3.49
2022-12-29T02:41:22.664Z,3.46
2022-12-29T02:44:40.595Z,3.52
2022-12-29T02:47:30.866Z,4.11
2022-12-29T02:50:24.412Z,4.54
2022-12-29T02:53:07.818Z,4.96
2022-12-29T02:55:35.788Z,5.03
2022-12-29T02:58:22.718Z,4.80
2022-12-29T03:01:10.388Z,4.94
2022-12-29T03:04:13.331Z,5.18
2022-12-29T03:06:55.646Z,5.52
2022-12-29T03:09:54.493Z,5.55
2022-12-29T03:13:13.690Z,5.56
2022-12-29T03:16:22.459Z,5.50
2022-12-29T03:19:19.229Z,5.09
2022-12-29T03:22:20.438Z,4.74
2022-12-29T03:25:09.289Z,4.54
2022-12-29T03:27:50.834Z,4.46
2022-12-29T03:30:20.254Z,4.50
2022-12-29T03:32:59.671Z,4.33
2022-12-29T03:35:34.231Z,4.08
2022-12-29T03:38:14.826Z,4.00
2022-12-29T03:40:48.651Z,3.91
2022-12-29T03:43:18.246Z,3.99
2022-12-29T03:45:47.057Z,4.00
2022-12-29T03:48:14.526Z,3.64
2022-12-29T03:50:42.540Z,3.74
2022-12-29T03:53:10.082Z,4.27
2022-12-29T03:55:39.622Z,4.51
2022-12-29T03:58:07.049Z,4.58
2022-12-29T04:00:49.246Z,4.49
2022-12-29T04:03:16.778Z,4.19
2022-12-29T04:05:45.787Z,4.10
2022-12-29T04:08:13.184Z,4.16
2022-12-29T04:10:40.910Z,3.92
2022-12-29T04:13:08.250Z,3.80
2022-12-29T04:15:35.713Z,3.73
2022-12-29T04:18:03.251Z,3.86
2022-12-29T04:20:49.239Z,4.26
2022-12-29T04:23:16.847Z,4.48
2022-12-29T04:25:49.535Z,4.51
2022-12-29T04:28:18.174Z,4.32
2022-12-29T04:31:04.465Z,4.19
2022-12-29T04:33:37.135Z,4.42
2022-12-29T04:36:05.106Z,4.37
2022-12-29T04:38:33.103Z,4.29
2022-12-29T04:41:03.903Z,4.24
2022-12-29T04:43:31.592Z,4.01
2022-12-29T04:46:19.235Z,4.46
2022-12-29T04:48:58.005Z,4.49
2022-12-29T04:51:46.304Z,4.26
2022-12-29T04:54:15.303Z,3.95
2022-12-29T04:56:44.892Z,3.80
2022-12-29T04:59:15.009Z,3.65
2022-12-29T05:01:44.313Z,3.70
2022-12-29T05:04:11.688Z,3.72
2022-12-29T05:06:39.137Z,3.73
2022-12-29T05:09:06.905Z,3.90
2022-12-29T05:11:36.161Z,3.94
2022-12-29T05:14:03.700Z,3.95
2022-12-29T05:16:31.211Z,3.97
2022-12-29T05:18:58.763Z,4.14
2022-12-29T05:21:26.118Z,4.21
2022-12-29T05:23:53.415Z,4.15
2022-12-29T05:26:20.822Z,4.19
2022-12-29T05:29:11.336Z,4.34
2022-12-29T05:31:38.963Z,4.26
2022-12-29T05:34:07.256Z,4.40
2022-12-29T05:36:37.958Z,4.55
2022-12-29T05:39:08.681Z,4.65
2022-12-29T05:41:36.807Z,4.62
2022-12-29T05:44:23.586Z,4.50
2022-12-29T05:47:11.199Z,4.56
2022-12-29T05:50:08.422Z,4.62
2022-12-29T05:52:54.427Z,4.96
2022-12-29T05:55:22.185Z,5.12
2022-12-29T05:57:52.075Z,5.12
2022-12-29T06:00:19.740Z,5.21
2022-12-29T06:02:48.231Z,5.30
2022-12-29T06:05:17.599Z,5.24
2022-12-29T06:07:46.425Z,5.24
2022-12-29T06:10:16.333Z,5.42
2022-12-29T06:12:48.222Z,5.61
2022-12-29T06:15:16.333Z,5.73
2022-12-29T06:17:47.015Z,5.58
2022-12-29T06:20:14.499Z,5.45
2022-12-29T06:22:41.919Z,5.36
2022-12-29T06:25:09.952Z,5.29
2022-12-29T06:27:37.535Z,5.30
2022-12-29T06:30:06.270Z,5.26
2022-12-29T06:32:33.692Z,5.47
2022-12-29T06:35:07.071Z,5.58
2022-12-29T06:37:38.250Z,5.57
2022-12-29T06:40:06.473Z,5.66
2022-12-29T06:42:49.789Z,5.69
2022-12-29T06:45:33.790Z,5.72
2022-12-29T06:48:01.407Z,5.76
2022-12-29T06:50:28.908Z,5.78
2022-12-29T06:52:56.209Z,5.62
2022-12-29T06:55:23.636Z,5.50
2022-12-29T06:57:50.997Z,5.48
2022-12-29T07:00:22.781Z,5.43
2022-12-29T07:02:51.449Z,5.31
2022-12-29T07:05:18.752Z,5.29
2022-12-29T07:07:46.095Z,5.18
2022-12-29T07:10:13.343Z,5.14
2022-12-29T07:12:40.683Z,5.19
2022-12-29T07:15:08.901Z,5.21
2022-12-29T07:17:36.254Z,5.19
2022-12-29T07:20:03.966Z,5.22
2022-12-29T07:22:31.379Z,5.23
2022-12-29T07:24:58.856Z,5.28
2022-12-29T07:27:26.258Z,5.21
2022-12-29T07:29:53.605Z,5.32
2022-12-29T07:32:20.909Z,5.34
2022-12-29T07:34:48.560Z,5.26
2022-12-29T07:37:19.562Z,5.53
2022-12-29T07:39:46.864Z,5.62
2022-12-29T07:42:14.136Z,5.53
2022-12-29T07:44:43.962Z,5.54
2022-12-29T07:47:19.418Z,5.45
2022-12-29T07:49:46.667Z,5.46
2022-12-29T07:52:13.999Z,5.51
2022-12-29T07:54:41.267Z,5.64
2022-12-29T07:57:08.692Z,5.80
2022-12-29T07:59:36.153Z,5.81
2022-12-29T08:02:04.042Z,5.78
2022-12-29T08:04:31.498Z,5.83
2022-12-29T08:06:58.746Z,5.89
2022-12-29T08:09:26.015Z,5.88
2022-12-29T08:11:54.515Z,5.90
2022-12-29T08:14:22.006Z,5.95
2022-12-29T08:16:49.311Z,5.91
2022-12-29T08:19:16.565Z,5.86
2022-12-29T08:21:43.962Z,5.77
2022-12-29T08:24:11.506Z,5.79
2022-12-29T08:26:38.989Z,5.87
2022-12-29T08:29:06.363Z,5.81
2022-12-29T08:31:33.650Z,5.90
2022-12-29T08:34:02.553Z,5.95
2022-12-29T08:36:30.904Z,5.95
2022-12-29T08:38:58.326Z,5.89
2022-12-29T08:41:25.588Z,5.91
2022-12-29T08:43:53.463Z,5.93
2022-12-29T08:46:20.827Z,6.01
2022-12-29T08:48:48.129Z,6.09
2022-12-29T08:51:18.219Z,6.12
2022-12-29T08:53:48.796Z,6.27
2022-12-29T08:56:17.236Z,6.42
2022-12-29T08:58:50.285Z,6.57
2022-12-29T09:01:19.587Z,6.67
2022-12-29T09:06:39.885Z,7.34
2022-12-29T09:09:08.119Z,7.31
2022-12-29T09:11:35.563Z,7.34
2022-12-29T09:14:02.884Z,7.47
2022-12-29T09:16:30.266Z,7.54
2022-12-29T09:18:57.634Z,7.69
2022-12-29T09:21:25.018Z,7.78
2022-12-29T09:23:52.525Z,7.82
2022-12-29T09:26:19.903Z,7.85
2022-12-29T09:28:48.219Z,8.04
2022-12-29T09:31:15.807Z,7.99
2022-12-29T09:33:43.126Z,7.80
2022-12-29T09:36:10.597Z,7.89
2022-12-29T09:38:37.799Z,7.70
2022-12-29T09:41:26.019Z,7.58
2022-12-29T09:44:08.416Z,7.39
2022-12-29T09:46:49.021Z,7.34
2022-12-29T09:49:44.398Z,7.23
2022-12-29T09:52:16.165Z,7.30
2022-12-29T09:55:03.221Z,7.54
2022-12-29T09:58:03.122Z,7.70
2022-12-29T10:01:04.736Z,7.79
2022-12-29T10:03:55.816Z,8.05
2022-12-29T10:10:21.389Z,8.66
2022-12-29T10:13:10.545Z,9.11
2022-12-29T10:15:58.832Z,9.51
2022-12-29T10:18:36.584Z,9.87
2022-12-29T10:21:32.693Z,10.24
2022-12-29T10:24:03.023Z,10.21
2022-12-29T10:26:39.868Z,10.44
2022-12-29T10:29:20.024Z,10.55
2022-12-29T10:32:14.693Z,10.63
2022-12-29T10:34:52.663Z,10.64
2022-12-29T10:37:48.867Z,10.66
2022-12-29T10:40:34.102Z,10.57
2022-12-29T10:43:03.576Z,10.73
2022-12-29T10:45:35.073Z,10.91
2022-12-29T10:48:27.139Z,11.14
2022-12-29T10:51:02.676Z,11.36
2022-12-29T10:54:01.539Z,11.38
2022-12-29T10:56:38.470Z,11.68
2022-12-29T10:59:25.243Z,12.43
2022-12-29T11:02:13.208Z,13.13
2022-12-29T11:05:17.705Z,14.68
2022-12-29T11:07:48.033Z,16.23
2022-12-29T11:10:44.480Z,16.87
2022-12-29T11:13:38.639Z,17.92
2022-12-29T11:16:07.064Z,17.53
2022-12-29T11:18:39.342Z,16.95
2022-12-29T11:21:43.020Z,17.10
2022-12-29T11:24:26.079Z,17.46
2022-12-29T11:26:59.712Z,17.60
2022-12-29T11:29:30.297Z,17.28
2022-12-29T11:32:00.255Z,17.27
2022-12-29T11:34:37.316Z,17.47
2022-12-29T11:37:39.548Z,16.82
2022-12-29T11:40:11.581Z,16.23
2022-12-29T11:42:47.944Z,15.77
2022-12-29T11:45:24.533Z,15.58
2022-12-29T11:48:09.084Z,14.95
2022-12-29T11:50:42.982Z,14.71
2022-12-29T11:53:33.261Z,14.79
2022-12-29T11:56:09.380Z,14.09
2022-12-29T11:58:39.657Z,13.84
2022-12-29T12:04:19.728Z,13.69
2022-12-29T12:07:29.790Z,13.85
2022-12-29T12:10:09.831Z,14.43
2022-12-29T12:12:54.919Z,14.94
2022-12-29T12:15:32.765Z,15.66
2022-12-29T12:18:28.926Z,16.17
2022-12-29T12:21:05.810Z,16.43
2022-12-29T12:23:52.834Z,16.50
2022-12-29T12:26:29.725Z,16.13
2022-12-29T12:29:23.666Z,15.24
2022-12-29T12:32:10.650Z,14.70
2022-12-29T12:34:43.972Z,14.58
2022-12-29T12:37:30.932Z,14.16
2022-12-29T12:40:46.241Z,13.60
2022-12-29T12:43:32.582Z,12.97
2022-12-29T12:46:28.947Z,12.67
2022-12-29T12:49:38.580Z,12.73
2022-12-29T12:52:32.984Z,12.27
2022-12-29T12:55:56.218Z,11.86
2022-12-29T12:59:14.069Z,11.07
2022-12-29T13:02:31.143Z,10.45
2022-12-29T13:05:31.582Z,10.39
2022-12-29T13:08:44.833Z,10.64
2022-12-29T13:11:40.982Z,10.62
2022-12-29T13:14:35.395Z,10.32
2022-12-29T13:17:23.342Z,9.87
2022-12-29T13:20:12.883Z,9.55
2022-12-29T13:23:03.442Z,9.49
2022-12-29T13:26:01.489Z,9.15
2022-12-29T13:28:39.956Z,8.91
2022-12-29T13:31:29.825Z,8.66
2022-12-29T13:34:30.813Z,8.34
2022-12-29T13:37:05.246Z,8.08
2022-12-29T13:39:38.947Z,7.98
2022-12-29T13:42:07.749Z,7.93
2022-12-29T13:45:00.510Z,7.84
2022-12-29T13:47:38.795Z,7.94
2022-12-29T13:50:19.413Z,7.85
2022-12-29T13:53:20.306Z,7.48
2022-12-29T13:55:53.247Z,7.35
2022-12-29T13:58:36.067Z,7.48
2022-12-29T14:01:52.175Z,7.23
2022-12-29T14:04:27.264Z,7.12
2022-12-29T14:07:13.889Z,7.17
2022-12-29T14:09:57.603Z,7.13
2022-12-29T14:12:44.875Z,7.13
2022-12-29T14:15:12.093Z,7.08
2022-12-29T14:17:45.642Z,7.16
2022-12-29T14:20:24.324Z,6.97
2022-12-29T14:23:43.440Z,6.90
2022-12-29T14:26:33.413Z,6.87
2022-12-29T14:29:41.543Z,6.82
2022-12-29T14:32:26.996Z,6.61
2022-12-29T14:34:57.182Z,6.61
2022-12-29T14:37:32.917Z,6.70
2022-12-29T14:40:07.821Z,6.60
2022-12-29T14:42:35.330Z,6.54
2022-12-29T14:45:14.461Z,6.48
2022-12-29T14:47:49.580Z,6.55
2022-12-29T14:50:22.054Z,6.57
2022-12-29T14:53:03.662Z,6.65
2022-12-29T14:55:55.260Z,6.58
2022-12-29T14:58:35.720Z,6.68
2022-12-29T15:01:03.563Z,6.55
2022-12-29T15:03:37.439Z,6.34
2022-12-29T15:06:12.579Z,6.16
2022-12-29T15:09:11.889Z,6.19
2022-12-29T15:11:48.565Z,6.09
2022-12-29T15:14:52.575Z,6.11
2022-12-29T15:17:35.425Z,6.13
2022-12-29T15:20:23.370Z,5.99
2022-12-29T15:23:10.611Z,6.02
2022-12-29T15:25:38.080Z,5.97
2022-12-29T15:28:07.785Z,5.82
2022-12-29T15:30:36.027Z,5.77
2022-12-29T15:33:04.005Z,5.93
2022-12-29T15:35:36.559Z,5.93
2022-12-29T15:38:32.178Z,5.95
2022-12-29T15:41:15.312Z,5.91
2022-12-29T15:44:00.102Z,5.90
2022-12-29T15:46:31.271Z,5.89
2022-12-29T15:48:59.256Z,5.86
2022-12-29T15:51:38.470Z,5.86
2022-12-29T15:54:06.096Z,5.97
2022-12-29T15:56:34.332Z,5.88
2022-12-29T15:59:02.915Z,5.90
2022-12-29T16:01:37.791Z,5.91
2022-12-29T16:04:10.073Z,5.83
2022-12-29T16:06:54.956Z,5.82
2022-12-29T16:09:45.548Z,5.83
2022-12-29T16:12:35.295Z,5.88
2022-12-29T16:15:13.557Z,5.98
2022-12-29T16:17:54.501Z,6.03
2022-12-29T16:20:29.934Z,6.08
2022-12-29T16:23:00.709Z,5.94
2022-12-29T16:25:38.376Z,5.76
2022-12-29T16:28:24.345Z,5.79
2022-12-29T16:31:06.972Z,5.81
2022-12-29T16:33:55.863Z,5.90
2022-12-29T16:36:30.913Z,5.86
2022-12-29T16:39:24.968Z,5.64
2022-12-29T16:41:53.490Z,5.58
2022-12-29T16:44:25.675Z,5.60
2022-12-29T16:47:08.422Z,5.72
2022-12-29T16:49:38.753Z,5.72
2022-12-29T16:52:35.690Z,5.82
2022-12-29T16:55:03.634Z,5.96
2022-12-29T16:57:37.452Z,5.93
2022-12-29T17:00:08.828Z,5.93
2022-12-29T17:02:46.081Z,5.96
2022-12-29T17:05:19.139Z,5.82
2022-12-29T17:07:47.686Z,5.75
2022-12-29T17:10:16.433Z,5.61
2022-12-29T17:12:46.914Z,5.64
2022-12-29T17:15:33.263Z,5.82
2022-12-29T17:18:01.446Z,5.91
2022-12-29T17:20:31.631Z,5.96
2022-12-29T17:23:00.429Z,5.90
2022-12-29T17:25:38.644Z,5.51
2022-12-29T17:28:23.961Z,5.47
2022-12-29T17:31:03.075Z,5.52
2022-12-29T17:33:38.438Z,5.51
2022-12-29T17:36:06.035Z,5.59
2022-12-29T17:38:37.568Z,5.69
2022-12-29T17:41:05.017Z,5.85
2022-12-29T17:43:37.078Z,5.92
2022-12-29T17:46:08.202Z,6.00
2022-12-29T17:48:35.880Z,6.10
2022-12-29T17:51:03.505Z,6.01
2022-12-29T17:53:31.517Z,5.98
2022-12-29T17:55:59.072Z,6.00
2022-12-29T17:58:29.114Z,6.00
2022-12-29T18:01:02.576Z,6.09
2022-12-29T18:03:33.189Z,6.18
2022-12-29T18:06:00.763Z,6.14
2022-12-29T18:08:30.876Z,6.14
2022-12-29T18:10:58.687Z,6.16
2022-12-29T18:13:43.582Z,6.03
2022-12-29T18:16:14.827Z,6.02
2022-12-29T18:18:42.181Z,6.01
2022-12-29T18:21:27.998Z,6.03
2022-12-29T18:23:55.783Z,5.90
2022-12-29T18:26:31.654Z,5.98
2022-12-29T18:28:59.874Z,5.88
2022-12-29T18:31:33.952Z,5.95
2022-12-29T18:34:07.629Z,5.84
2022-12-29T18:36:34.995Z,5.84
2022-12-29T18:39:02.319Z,5.64
2022-12-29T18:41:30.294Z,5.60
2022-12-29T18:43:59.572Z,5.58
2022-12-29T18:46:27.338Z,5.72
2022-12-29T18:48:55.056Z,5.85
2022-12-29T18:51:24.727Z,5.91
2022-12-29T18:53:54.383Z,5.71
2022-12-29T18:56:23.725Z,5.50
2022-12-29T18:58:51.618Z,5.46
2022-12-29T19:01:26.077Z,5.49
2022-12-29T19:03:54.338Z,5.47
2022-12-29T19:06:22.253Z,5.49
2022-12-29T19:08:49.751Z,5.42
2022-12-29T19:11:17.972Z,5.28
2022-12-29T19:13:45.449Z,5.17
2022-12-29T19:16:21.752Z,5.21
2022-12-29T19:19:05.745Z,5.15
2022-12-29T19:21:35.034Z,5.22
2022-12-29T19:24:02.260Z,5.20
2022-12-29T19:26:36.976Z,5.23
2022-12-29T19:29:06.473Z,5.19
2022-12-29T19:31:34.411Z,5.26
2022-12-29T19:34:03.472Z,5.23
2022-12-29T19:36:31.087Z,5.42
2022-12-29T19:38:58.733Z,5.57
2022-12-29T19:41:26.079Z,5.39
2022-12-29T19:43:53.503Z,5.23
2022-12-29T19:46:21.298Z,5.07
2022-12-29T19:48:48.728Z,4.98
2022-12-29T19:51:17.331Z,4.95
2022-12-29T19:53:46.432Z,4.81
2022-12-29T19:56:14.877Z,4.71
2022-12-29T19:58:46.837Z,4.86
2022-12-29T20:01:23.785Z,4.82
2022-12-29T20:03:51.864Z,4.80
2022-12-29T20:06:20.537Z,4.85
2022-12-29T20:08:48.239Z,4.78
2022-12-29T20:11:18.511Z,4.74
2022-12-29T20:13:47.151Z,4.60
2022-12-29T20:16:19.902Z,4.67
2022-12-29T20:18:49.024Z,4.79
2022-12-29T20:21:21.041Z,4.83
2022-12-29T20:23:49.461Z,4.86
2022-12-29T20:26:22.065Z,4.68
2022-12-29T20:28:50.419Z,4.53
2022-12-29T20:31:31.880Z,4.62
2022-12-29T20:33:59.655Z,4.63
2022-12-29T20:36:31.958Z,4.52
2022-12-29T20:39:03.955Z,4.55
2022-12-29T20:41:31.325Z,4.56
2022-12-29T20:44:01.043Z,4.56
2022-12-29T20:46:35.356Z,4.37
2022-12-29T20:49:08.993Z,4.44
2022-12-29T20:52:04.587Z,4.29
2022-12-29T20:54:24.848Z,4.18
2022-12-29T20:56:52.641Z,4.06
2022-12-29T20:59:28.661Z,4.17
2022-12-29T21:01:57.983Z,4.08
2022-12-29T21:04:26.460Z,4.14
2022-12-29T21:06:54.468Z,4.18
2022-12-29T21:09:22.123Z,4.13
2022-12-29T21:11:49.496Z,4.01
2022-12-29T21:14:16.974Z,3.91
2022-12-29T21:16:44.398Z,3.88
2022-12-29T21:19:11.792Z,3.80
2022-12-29T21:21:39.170Z,3.80
2022-12-29T21:24:07.828Z,3.81
2022-12-29T21:26:35.813Z,3.86
2022-12-29T21:29:03.909Z,4.13
2022-12-29T21:31:37.101Z,4.47
2022-12-29T21:34:06.217Z,4.59
2022-12-29T21:36:34.425Z,4.61
2022-12-29T21:39:03.711Z,4.60
2022-12-29T21:41:32.061Z,4.46
2022-12-29T21:44:18.709Z,4.39
2022-12-29T21:46:47.874Z,4.24
2022-12-29T21:49:16.418Z,4.29
2022-12-29T21:51:57.660Z,4.34
2022-12-29T21:54:46.779Z,4.36
2022-12-29T21:57:37.370Z,4.41
2022-12-29T22:00:27.222Z,4.45
2022-12-29T22:03:22.077Z,4.38
2022-12-29T22:06:11.000Z,4.43
2022-12-29T22:08:57.932Z,4.49
2022-12-29T22:11:43.989Z,4.41
2022-12-29T22:14:11.456Z,4.18
2022-12-29T22:16:38.797Z,4.20
2022-12-29T22:19:08.016Z,4.21
2022-12-29T22:21:35.468Z,4.16
2022-12-29T22:24:03.002Z,4.19
2022-12-29T22:26:30.239Z,4.26
2022-12-29T22:28:57.826Z,4.20
2022-12-29T22:31:30.362Z,4.26
2022-12-29T22:34:01.240Z,4.15
2022-12-29T22:36:28.917Z,3.99
2022-12-29T22:38:56.241Z,3.88
2022-12-29T22:41:24.618Z,3.79
2022-12-29T22:43:51.981Z,3.75
2022-12-29T22:46:19.850Z,3.62
2022-12-29T22:48:47.527Z,3.72
2022-12-29T22:51:14.790Z,3.74
2022-12-29T22:53:42.183Z,3.64
2022-12-29T22:56:12.776Z,3.47
2022-12-29T22:58:44.944Z,3.46
2022-12-29T23:01:15.986Z,3.58
2022-12-29T23:03:44.365Z,3.81
2022-12-29T23:06:14.166Z,3.94
2022-12-29T23:08:42.074Z,3.80
2022-12-29T23:11:12.459Z,3.58
2022-12-29T23:13:41.753Z,3.47
2022-12-29T23:16:09.223Z,3.40
2022-12-29T23:18:37.487Z,3.30
2022-12-29T23:21:05.125Z,3.48
2022-12-29T23:23:50.960Z,3.68
2022-12-29T23:26:24.326Z,3.79
2022-12-29T23:28:56.283Z,3.68
2022-12-29T23:31:28.540Z,3.60
2022-12-29T23:33:56.473Z,3.53
2022-12-29T23:36:24.113Z,3.63
2022-12-29T23:38:51.642Z,3.86
2022-12-29T23:41:18.889Z,3.90
2022-12-29T23:43:46.829Z,3.99
2022-12-29T23:46:24.548Z,4.14
2022-12-29T23:48:51.924Z,4.05
2022-12-29T23:51:19.738Z,3.95
2022-12-29T23:53:47.856Z,4.04
2022-12-29T23:56:19.078Z,4.04
2022-12-29T23:58:46.674Z,4.14
